PWSweather.com
Personal Weather Stations
Station Observations
270882
Flassian, LimouxFR 11300

FlassianLimouxFR 11300

Lat: 43.071798, Lon: 2.217292

Elevation: 165

Station Type: Oregon WMR 200

http://www.meteolimoux.fr

Latest ConditionsUpdated 9:52:12 PM GMT+01:01 Wednesday, Apr 24, 2019
Currently Today's Max Today's Min Today's Average
Temperature 65.3°F18.5°C 73.9°F23.3°C 51.3°F10.7°C 62.0°F16.7°C
Dew Point 36.3°F2.4°C 53.2°F11.8°C 32.9°F0.5°C 42.9°F6.1°C
Winds 5.1 mph SE8.2 kmh SE 9.8 mph -15.8 kmh - - 3.5 mph 5.6 kmh
Wind Gusts 9.8 mph15.8 kmh 20.8 mph33.5 kmh - -
Humidity 34% 94% 24% 55%
Pressure 29.63 in1003.4 mb 29.63 in1003.4 mb 29.42 in996.3 mb -
Hour Temp Dew Point Humidity Winds Wind Gusts Pressure Precip Precip Rate Daily Precip Total
09:52 PM 65.3°F18.5°C 36.3°F2.4°C 34% 5.1 mph SE8.2 kmh SE 9.8 mph15.8 kmh 29.63 in1003.4 mb - 0.00 in0.0 mm 0.00 in0.0 mm
09:47 PM 65.1°F18.4°C 36.1°F2.3°C 34% 2.9 mph S4.7 kmh S 9.4 mph15.1 kmh 29.63 in1003.4 mb - 0.00 in0.0 mm 0.00 in0.0 mm
09:42 PM 65.1°F18.4°C 36.1°F2.3°C 34% 2.5 mph SW4.0 kmh SW 8.3 mph13.4 kmh 29.63 in1003.4 mb - 0.00 in0.0 mm 0.00 in0.0 mm
09:37 PM 65.1°F18.4°C 36.1°F2.3°C 34% 4.9 mph SSE7.9 kmh SSE 11.2 mph18.0 kmh 29.63 in1003.4 mb - 0.00 in0.0 mm 0.00 in0.0 mm
09:32 PM 65.1°F18.4°C 36.1°F2.3°C 34% 2.9 mph S4.7 kmh S 9.2 mph14.8 kmh 29.63 in1003.4 mb - 0.00 in0.0 mm 0.00 in0.0 mm
09:27 PM 64.8°F18.2°C 35.8°F2.1°C 34% 0.7 mph SSE1.1 kmh SSE 4.7 mph7.6 kmh 29.63 in1003.4 mb - 0.00 in0.0 mm 0.00 in0.0 mm
09:22 PM 64.8°F18.2°C 35.8°F2.1°C 34% Calm Calm -- 29.63 in1003.4 mb - 0.00 in0.0 mm 0.00 in0.0 mm
09:17 PM 64.8°F18.2°C 35.8°F2.1°C 34% 1.1 mph SSW1.8 kmh SSW 5.6 mph9.0 kmh 29.63 in1003.4 mb - 0.00 in0.0 mm 0.00 in0.0 mm
09:12 PM 64.8°F18.2°C 35.8°F2.1°C 34% 4.3 mph S6.9 kmh S 12.5 mph20.1 kmh 29.63 in1003.4 mb - 0.00 in0.0 mm 0.00 in0.0 mm
09:07 PM 64.9°F18.3°C 36.0°F2.2°C 34% 1.1 mph SE1.8 kmh SE 6.3 mph10.1 kmh 29.63 in1003.4 mb - 0.00 in0.0 mm 0.00 in0.0 mm
09:02 PM 64.8°F18.2°C 35.8°F2.1°C 34% 1.3 mph SSE2.1 kmh SSE 7.8 mph12.6 kmh 29.63 in1003.4 mb - 0.00 in0.0 mm 0.00 in0.0 mm
08:57 PM 64.9°F18.3°C 36.0°F2.2°C 34% 0.2 mph SE0.3 kmh SE 4.3 mph6.9 kmh 29.63 in1003.4 mb - 0.00 in0.0 mm 0.00 in0.0 mm
08:52 PM 64.9°F18.3°C 35.2°F1.8°C 33% 2.0 mph SE3.2 kmh SE 2.0 mph3.2 kmh 29.63 in1003.4 mb - 0.00 in0.0 mm 0.00 in0.0 mm
08:47 PM 65.1°F18.4°C 35.4°F1.9°C 33% 3.6 mph SE5.8 kmh SE 8.3 mph13.4 kmh 29.63 in1003.4 mb - 0.00 in0.0 mm 0.00 in0.0 mm
08:42 PM 65.1°F18.4°C 35.4°F1.9°C 33% 1.3 mph SE2.1 kmh SE 9.2 mph14.8 kmh 29.63 in1003.4 mb - 0.00 in0.0 mm 0.00 in0.0 mm
08:37 PM 64.9°F18.3°C 35.2°F1.8°C 33% Calm Calm 1.1 mph1.8 kmh 29.63 in1003.4 mb - 0.00 in0.0 mm 0.00 in0.0 mm
08:32 PM 65.1°F18.4°C 35.4°F1.9°C 33% 0.9 mph SE1.4 kmh SE 6.9 mph11.1 kmh 29.63 in1003.4 mb - 0.00 in0.0 mm 0.00 in0.0 mm
08:27 PM 65.3°F18.5°C 35.4°F1.9°C 33% 3.1 mph SE5.0 kmh SE 8.1 mph13.0 kmh 29.63 in1003.4 mb - 0.00 in0.0 mm 0.00 in0.0 mm
08:22 PM 65.3°F18.5°C 35.4°F1.9°C 33% 2.5 mph E4.0 kmh E 9.2 mph14.8 kmh 29.63 in1003.4 mb - 0.00 in0.0 mm 0.00 in0.0 mm
08:17 PM 65.5°F18.6°C 35.6°F2.0°C 33% 2.7 mph SE4.3 kmh SE 6.9 mph11.1 kmh 29.63 in1003.4 mb - 0.00 in0.0 mm 0.00 in0.0 mm
08:12 PM 65.5°F18.6°C 34.9°F1.6°C 32% 1.3 mph SE2.1 kmh SE 6.7 mph10.8 kmh 29.63 in1003.4 mb - 0.00 in0.0 mm 0.00 in0.0 mm
08:07 PM 65.7°F18.7°C 35.1°F1.7°C 32% 3.6 mph ESE5.8 kmh ESE 8.9 mph14.3 kmh 29.63 in1003.4 mb - 0.00 in0.0 mm 0.00 in0.0 mm
08:02 PM 65.8°F18.8°C 35.2°F1.8°C 32% 1.3 mph SE2.1 kmh SE 8.5 mph13.7 kmh 29.63 in1003.4 mb - 0.00 in0.0 mm 0.00 in0.0 mm
07:57 PM 65.8°F18.8°C 34.3°F1.3°C 31% 0.7 mph SW1.1 kmh SW 6.5 mph10.5 kmh 29.63 in1003.4 mb - 0.00 in0.0 mm 0.00 in0.0 mm
07:52 PM 65.8°F18.8°C 34.3°F1.3°C 31% Calm Calm -- 29.63 in1003.4 mb - 0.00 in0.0 mm 0.00 in0.0 mm
07:47 PM 66.0°F18.9°C 34.5°F1.4°C 31% Calm Calm -- 29.63 in1003.4 mb - 0.00 in0.0 mm 0.00 in0.0 mm
07:42 PM 66.4°F19.1°C 34.9°F1.6°C 31% 0.2 mph SE0.3 kmh SE 4.5 mph7.2 kmh 29.60 in1002.4 mb - 0.00 in0.0 mm 0.00 in0.0 mm
07:37 PM 66.7°F19.3°C 34.3°F1.3°C 30% 0.4 mph SE0.6 kmh SE 5.4 mph8.7 kmh 29.60 in1002.4 mb - 0.00 in0.0 mm 0.00 in0.0 mm
07:32 PM 66.9°F19.4°C 34.5°F1.4°C 30% 1.1 mph SSE1.8 kmh SSE 4.0 mph6.4 kmh 29.60 in1002.4 mb - 0.00 in0.0 mm 0.00 in0.0 mm
07:27 PM 67.1°F19.5°C 34.7°F1.5°C 30% 2.7 mph SE4.3 kmh SE 6.9 mph11.1 kmh 29.60 in1002.4 mb - 0.00 in0.0 mm 0.00 in0.0 mm
07:22 PM 67.5°F19.7°C 34.2°F1.2°C 29% 0.2 mph SE0.3 kmh SE 4.0 mph6.4 kmh 29.60 in1002.4 mb - 0.00 in0.0 mm 0.00 in0.0 mm
07:17 PM 67.6°F19.8°C 34.3°F1.3°C 29% 0.9 mph SE1.4 kmh SE 4.7 mph7.6 kmh 29.60 in1002.4 mb - 0.00 in0.0 mm 0.00 in0.0 mm
07:12 PM 68.0°F20.0°C 33.8°F1.0°C 28% 4.3 mph SE6.9 kmh SE 8.7 mph14.0 kmh 29.60 in1002.4 mb - 0.00 in0.0 mm 0.00 in0.0 mm
07:07 PM 68.2°F20.1°C 33.8°F1.0°C 28% 3.1 mph SE5.0 kmh SE 9.8 mph15.8 kmh 29.60 in1002.4 mb - 0.00 in0.0 mm 0.00 in0.0 mm
07:02 PM 68.5°F20.3°C 34.2°F1.2°C 28% 3.4 mph SSE5.5 kmh SSE 9.6 mph15.4 kmh 29.60 in1002.4 mb - 0.00 in0.0 mm 0.00 in0.0 mm
06:57 PM 68.9°F20.5°C 34.5°F1.4°C 28% 2.0 mph SSW3.2 kmh SSW 9.2 mph14.8 kmh 29.60 in1002.4 mb - 0.00 in0.0 mm 0.00 in0.0 mm
06:52 PM 69.1°F20.6°C 34.7°F1.5°C 28% 0.4 mph SSE0.6 kmh SSE 4.0 mph6.4 kmh 29.60 in1002.4 mb - 0.00 in0.0 mm 0.00 in0.0 mm
06:47 PM 69.3°F20.7°C 34.0°F1.1°C 27% 0.2 mph SSW0.3 kmh SSW 2.2 mph3.5 kmh 29.60 in1002.4 mb - 0.00 in0.0 mm 0.00 in0.0 mm
06:42 PM 69.4°F20.8°C 34.9°F1.6°C 28% 1.1 mph SSE1.8 kmh SSE 4.5 mph7.2 kmh 29.60 in1002.4 mb - 0.00 in0.0 mm 0.00 in0.0 mm
06:37 PM 69.8°F21.0°C 34.3°F1.3°C 27% 2.9 mph SE4.7 kmh SE 2.9 mph4.7 kmh 29.60 in1002.4 mb - 0.00 in0.0 mm 0.00 in0.0 mm
06:32 PM 70.0°F21.1°C 33.6°F0.9°C 26% 1.8 mph SSE2.9 kmh SSE 6.3 mph10.1 kmh 29.60 in1002.4 mb - 0.00 in0.0 mm 0.00 in0.0 mm
06:27 PM 70.2°F21.2°C 33.8°F1.0°C 26% 4.0 mph SSW6.4 kmh SSW 8.9 mph14.3 kmh 29.60 in1002.4 mb - 0.00 in0.0 mm 0.00 in0.0 mm
06:22 PM 70.2°F21.2°C 33.8°F1.0°C 26% 2.5 mph S4.0 kmh S 7.4 mph11.9 kmh 29.60 in1002.4 mb - 0.00 in0.0 mm 0.00 in0.0 mm
06:17 PM 70.3°F21.3°C 32.9°F0.5°C 25% 4.3 mph SSW6.9 kmh SSW 7.8 mph12.6 kmh 29.60 in1002.4 mb - 0.00 in0.0 mm 0.00 in0.0 mm
06:12 PM 70.5°F21.4°C 33.1°F0.6°C 25% 3.6 mph SW5.8 kmh SW 8.7 mph14.0 kmh 29.60 in1002.4 mb - 0.00 in0.0 mm 0.00 in0.0 mm
06:07 PM 70.9°F21.6°C 33.4°F0.8°C 25% 3.8 mph SE6.1 kmh SE 11.0 mph17.7 kmh 29.60 in1002.4 mb - 0.00 in0.0 mm 0.00 in0.0 mm
06:02 PM 71.2°F21.8°C 33.6°F0.9°C 25% 2.2 mph S3.5 kmh S 10.1 mph16.3 kmh 29.60 in1002.4 mb - 0.00 in0.0 mm 0.00 in0.0 mm
05:57 PM 71.8°F22.1°C 34.2°F1.2°C 25% 3.6 mph WSW5.8 kmh WSW 11.0 mph17.7 kmh 29.60 in1002.4 mb - 0.00 in0.0 mm 0.00 in0.0 mm
05:52 PM 72.5°F22.5°C 34.7°F1.5°C 25% 4.5 mph S7.2 kmh S 9.6 mph15.4 kmh 29.60 in1002.4 mb - 0.00 in0.0 mm 0.00 in0.0 mm
05:47 PM 73.0°F22.8°C 35.2°F1.8°C 25% 5.1 mph S8.2 kmh S 11.9 mph19.2 kmh 29.60 in1002.4 mb - 0.00 in0.0 mm 0.00 in0.0 mm
05:42 PM 73.2°F22.9°C 35.2°F1.8°C 25% 7.6 mph SW12.2 kmh SW 15.2 mph24.5 kmh 29.60 in1002.4 mb - 0.00 in0.0 mm 0.00 in0.0 mm
05:37 PM 73.2°F22.9°C 35.2°F1.8°C 25% 5.4 mph SSW8.7 kmh SSW 11.6 mph18.7 kmh 29.60 in1002.4 mb - 0.00 in0.0 mm 0.00 in0.0 mm
05:32 PM 73.4°F23.0°C 35.4°F1.9°C 25% 6.7 mph SW10.8 kmh SW 12.1 mph19.5 kmh 29.60 in1002.4 mb - 0.00 in0.0 mm 0.00 in0.0 mm
05:27 PM 73.2°F22.9°C 35.2°F1.8°C 25% 8.7 mph SSW14.0 kmh SSW 15.4 mph24.8 kmh 29.60 in1002.4 mb - 0.00 in0.0 mm 0.00 in0.0 mm
05:22 PM 73.0°F22.8°C 34.2°F1.2°C 24% 9.2 mph SW14.8 kmh SW 17.7 mph28.5 kmh 29.60 in1002.4 mb - 0.00 in0.0 mm 0.00 in0.0 mm
05:17 PM 73.0°F22.8°C 34.2°F1.2°C 24% 8.5 mph SW13.7 kmh SW 15.0 mph24.1 kmh 29.60 in1002.4 mb - 0.00 in0.0 mm 0.00 in0.0 mm
05:12 PM 73.4°F23.0°C 34.5°F1.4°C 24% 7.4 mph S11.9 kmh S 13.6 mph21.9 kmh 29.60 in1002.4 mb - 0.00 in0.0 mm 0.00 in0.0 mm
05:07 PM 73.4°F23.0°C 34.5°F1.4°C 24% 8.3 mph S13.4 kmh S 16.8 mph27.0 kmh 29.60 in1002.4 mb - 0.00 in0.0 mm 0.00 in0.0 mm
05:02 PM 73.4°F23.0°C 34.5°F1.4°C 24% 7.6 mph WSW12.2 kmh WSW 12.3 mph19.8 kmh 29.60 in1002.4 mb - 0.00 in0.0 mm 0.00 in0.0 mm
04:57 PM 73.4°F23.0°C 34.5°F1.4°C 24% 6.7 mph WSW10.8 kmh WSW 13.4 mph21.6 kmh 29.57 in1001.4 mb - 0.00 in0.0 mm 0.00 in0.0 mm
04:52 PM 73.8°F23.2°C 34.7°F1.5°C 24% 6.3 mph SW10.1 kmh SW 15.0 mph24.1 kmh 29.57 in1001.4 mb - 0.00 in0.0 mm 0.00 in0.0 mm
04:47 PM 73.8°F23.2°C 34.7°F1.5°C 24% 7.4 mph SW11.9 kmh SW 14.1 mph22.7 kmh 29.57 in1001.4 mb - 0.00 in0.0 mm 0.00 in0.0 mm
04:42 PM 73.8°F23.2°C 35.8°F2.1°C 25% 8.3 mph WSW13.4 kmh WSW 17.0 mph27.4 kmh 29.60 in1002.4 mb - 0.00 in0.0 mm 0.00 in0.0 mm
04:37 PM 73.6°F23.1°C 34.5°F1.4°C 24% 8.1 mph WSW13.0 kmh WSW 17.4 mph28.0 kmh 29.60 in1002.4 mb - 0.00 in0.0 mm 0.00 in0.0 mm
04:32 PM 73.6°F23.1°C 34.5°F1.4°C 24% 6.7 mph SW10.8 kmh SW 15.0 mph24.1 kmh 29.60 in1002.4 mb - 0.00 in0.0 mm 0.00 in0.0 mm
04:27 PM 73.8°F23.2°C 34.7°F1.5°C 24% 9.4 mph S15.1 kmh S 19.9 mph32.0 kmh 29.57 in1001.4 mb - 0.00 in0.0 mm 0.00 in0.0 mm
04:22 PM 73.8°F23.2°C 34.7°F1.5°C 24% 8.1 mph S13.0 kmh S 15.4 mph24.8 kmh 29.57 in1001.4 mb - 0.00 in0.0 mm 0.00 in0.0 mm
04:17 PM 73.6°F23.1°C 34.5°F1.4°C 24% 8.3 mph S13.4 kmh S 14.5 mph23.3 kmh 29.57 in1001.4 mb - 0.00 in0.0 mm 0.00 in0.0 mm
04:12 PM 73.8°F23.2°C 34.7°F1.5°C 24% 8.1 mph WSW13.0 kmh WSW 13.4 mph21.6 kmh 29.60 in1002.4 mb - 0.00 in0.0 mm 0.00 in0.0 mm
04:07 PM 73.8°F23.2°C 35.8°F2.1°C 25% 8.7 mph SSW14.0 kmh SSW 15.7 mph25.3 kmh 29.60 in1002.4 mb - 0.00 in0.0 mm 0.00 in0.0 mm
04:02 PM 73.9°F23.3°C 34.9°F1.6°C 24% 7.8 mph SSE12.6 kmh SSE 14.1 mph22.7 kmh 29.60 in1002.4 mb - 0.00 in0.0 mm 0.00 in0.0 mm
03:57 PM 73.9°F23.3°C 34.9°F1.6°C 24% 7.4 mph S11.9 kmh S 17.7 mph28.5 kmh 29.57 in1001.4 mb - 0.00 in0.0 mm 0.00 in0.0 mm
03:52 PM 73.8°F23.2°C 34.7°F1.5°C 24% 8.1 mph SSW13.0 kmh SSW 16.1 mph25.9 kmh 29.57 in1001.4 mb - 0.00 in0.0 mm 0.00 in0.0 mm
03:47 PM 73.6°F23.1°C 34.5°F1.4°C 24% 9.8 mph SSW15.8 kmh SSW 19.2 mph30.9 kmh 29.57 in1001.4 mb - 0.00 in0.0 mm 0.00 in0.0 mm
03:42 PM 73.6°F23.1°C 34.5°F1.4°C 24% 9.8 mph S15.8 kmh S 20.8 mph33.5 kmh 29.57 in1001.4 mb - 0.00 in0.0 mm 0.00 in0.0 mm
03:37 PM 73.4°F23.0°C 34.5°F1.4°C 24% 7.8 mph S12.6 kmh S 17.0 mph27.4 kmh 29.57 in1001.4 mb - 0.00 in0.0 mm 0.00 in0.0 mm
03:32 PM 73.4°F23.0°C 35.4°F1.9°C 25% 5.4 mph S8.7 kmh S 11.4 mph18.3 kmh 29.57 in1001.4 mb - 0.00 in0.0 mm 0.00 in0.0 mm
03:27 PM 73.2°F22.9°C 35.2°F1.8°C 25% 5.4 mph SE8.7 kmh SE 14.1 mph22.7 kmh 29.57 in1001.4 mb - 0.00 in0.0 mm 0.00 in0.0 mm
03:22 PM 72.7°F22.6°C 35.8°F2.1°C 26% 4.3 mph S6.9 kmh S 9.6 mph15.4 kmh 29.57 in1001.4 mb - 0.00 in0.0 mm 0.00 in0.0 mm
03:17 PM 73.0°F22.8°C 35.2°F1.8°C 25% 6.9 mph SSE11.1 kmh SSE 12.5 mph20.1 kmh 29.57 in1001.4 mb - 0.00 in0.0 mm 0.00 in0.0 mm
03:12 PM 72.7°F22.6°C 36.9°F2.7°C 27% 7.6 mph S12.2 kmh S 13.6 mph21.9 kmh 29.57 in1001.4 mb - 0.00 in0.0 mm 0.00 in0.0 mm
03:07 PM 72.3°F22.4°C 34.5°F1.4°C 25% 5.1 mph SW8.2 kmh SW 10.7 mph17.2 kmh 29.57 in1001.4 mb - 0.00 in0.0 mm 0.00 in0.0 mm
03:02 PM 72.1°F22.3°C 35.4°F1.9°C 26% 7.6 mph WSW12.2 kmh WSW 16.1 mph25.9 kmh 29.57 in1001.4 mb - 0.00 in0.0 mm 0.00 in0.0 mm
02:57 PM 72.0°F22.2°C 35.2°F1.8°C 26% 6.5 mph SW10.5 kmh SW 11.6 mph18.7 kmh 29.54 in1000.3 mb - 0.00 in0.0 mm 0.00 in0.0 mm
02:52 PM 72.0°F22.2°C 34.3°F1.3°C 25% 5.8 mph SW9.3 kmh SW 11.4 mph18.3 kmh 29.54 in1000.3 mb - 0.00 in0.0 mm 0.00 in0.0 mm
02:47 PM 72.0°F22.2°C 35.2°F1.8°C 26% 5.8 mph SW9.3 kmh SW 13.6 mph21.9 kmh 29.54 in1000.3 mb - 0.00 in0.0 mm 0.00 in0.0 mm
02:42 PM 71.8°F22.1°C 36.0°F2.2°C 27% 1.3 mph SE2.1 kmh SE 6.5 mph10.5 kmh 29.57 in1001.4 mb - 0.00 in0.0 mm 0.00 in0.0 mm
02:37 PM 71.6°F22.0°C 40.3°F4.6°C 32% 3.4 mph SE5.5 kmh SE 8.1 mph13.0 kmh 29.57 in1001.4 mb - 0.00 in0.0 mm 0.00 in0.0 mm
02:32 PM 71.6°F22.0°C 40.3°F4.6°C 32% 2.0 mph NE3.2 kmh NE 6.5 mph10.5 kmh 29.57 in1001.4 mb - 0.00 in0.0 mm 0.00 in0.0 mm
02:27 PM 71.1°F21.7°C 40.5°F4.7°C 33% 5.6 mph NNE9.0 kmh NNE 8.7 mph14.0 kmh 29.57 in1001.4 mb - 0.00 in0.0 mm 0.00 in0.0 mm
02:22 PM 70.5°F21.4°C 40.1°F4.5°C 33% 2.9 mph ESE4.7 kmh ESE 6.9 mph11.1 kmh 29.57 in1001.4 mb - 0.00 in0.0 mm 0.00 in0.0 mm
02:17 PM 70.0°F21.1°C 40.3°F4.6°C 34% 4.0 mph NE6.4 kmh NE 9.2 mph14.8 kmh 29.57 in1001.4 mb - 0.00 in0.0 mm 0.00 in0.0 mm
02:12 PM 69.4°F20.8°C 39.9°F4.4°C 34% 6.0 mph E9.7 kmh E 10.1 mph16.3 kmh 29.57 in1001.4 mb - 0.00 in0.0 mm 0.00 in0.0 mm
02:07 PM 68.7°F20.4°C 39.9°F4.4°C 35% 6.5 mph NE10.5 kmh NE 11.2 mph18.0 kmh 29.57 in1001.4 mb - 0.00 in0.0 mm 0.00 in0.0 mm
02:02 PM 69.1°F20.6°C 40.3°F4.6°C 35% 8.3 mph E13.4 kmh E 14.3 mph23.0 kmh 29.57 in1001.4 mb - 0.00 in0.0 mm 0.00 in0.0 mm
01:57 PM 68.7°F20.4°C 40.6°F4.8°C 36% 7.4 mph ENE11.9 kmh ENE 13.9 mph22.4 kmh 29.54 in1000.3 mb - 0.00 in0.0 mm 0.00 in0.0 mm
01:52 PM 68.7°F20.4°C 39.9°F4.4°C 35% 5.6 mph NNE9.0 kmh NNE 11.2 mph18.0 kmh 29.54 in1000.3 mb - 0.00 in0.0 mm 0.00 in0.0 mm
01:47 PM 68.7°F20.4°C 40.6°F4.8°C 36% 7.6 mph NE12.2 kmh NE 13.9 mph22.4 kmh 29.54 in1000.3 mb - 0.00 in0.0 mm 0.00 in0.0 mm
01:42 PM 68.7°F20.4°C 42.8°F6.0°C 39% 9.2 mph NNE14.8 kmh NNE 14.1 mph22.7 kmh 29.54 in1000.3 mb - 0.00 in0.0 mm 0.00 in0.0 mm
01:37 PM 69.1°F20.6°C 42.4°F5.8°C 38% 5.8 mph NE9.3 kmh NE 12.1 mph19.5 kmh 29.54 in1000.3 mb - 0.00 in0.0 mm 0.00 in0.0 mm
01:32 PM 69.3°F20.7°C 43.3°F6.3°C 39% 6.9 mph NE11.1 kmh NE 12.8 mph20.6 kmh 29.54 in1000.3 mb - 0.00 in0.0 mm 0.00 in0.0 mm
01:27 PM 68.9°F20.5°C 40.8°F4.9°C 36% 5.8 mph NE9.3 kmh NE 11.6 mph18.7 kmh 29.57 in1001.4 mb - 0.00 in0.0 mm 0.00 in0.0 mm
01:22 PM 69.1°F20.6°C 43.2°F6.2°C 39% 5.1 mph NNE8.2 kmh NNE 10.5 mph16.9 kmh 29.57 in1001.4 mb - 0.00 in0.0 mm 0.00 in0.0 mm
01:17 PM 68.9°F20.5°C 43.5°F6.4°C 40% 6.3 mph N10.1 kmh N 11.4 mph18.3 kmh 29.57 in1001.4 mb - 0.00 in0.0 mm 0.00 in0.0 mm
01:12 PM 68.5°F20.3°C 43.3°F6.3°C 40% 6.3 mph N10.1 kmh N 12.5 mph20.1 kmh 29.57 in1001.4 mb - 0.00 in0.0 mm 0.00 in0.0 mm
01:07 PM 68.0°F20.0°C 43.5°F6.4°C 41% 6.5 mph NNE10.5 kmh NNE 12.8 mph20.6 kmh 29.57 in1001.4 mb - 0.00 in0.0 mm 0.00 in0.0 mm
01:02 PM 67.8°F19.9°C 43.9°F6.6°C 42% 6.0 mph NNE9.7 kmh NNE 10.7 mph17.2 kmh 29.57 in1001.4 mb - 0.00 in0.0 mm 0.00 in0.0 mm
12:57 PM 67.5°F19.7°C 43.5°F6.4°C 42% 5.6 mph NNE9.0 kmh NNE 11.2 mph18.0 kmh 29.57 in1001.4 mb - 0.00 in0.0 mm 0.00 in0.0 mm
12:52 PM 67.1°F19.5°C 43.9°F6.6°C 43% 6.5 mph NNE10.5 kmh NNE 14.1 mph22.7 kmh 29.57 in1001.4 mb - 0.00 in0.0 mm 0.00 in0.0 mm
12:47 PM 66.7°F19.3°C 43.0°F6.1°C 42% 5.1 mph NNE8.2 kmh NNE 9.2 mph14.8 kmh 29.57 in1001.4 mb - 0.00 in0.0 mm 0.00 in0.0 mm
12:42 PM 67.1°F19.5°C 43.3°F6.3°C 42% 7.6 mph NNE12.2 kmh NNE 13.6 mph21.9 kmh 29.57 in1001.4 mb - 0.00 in0.0 mm 0.00 in0.0 mm
12:37 PM 66.9°F19.4°C 43.7°F6.5°C 43% 6.7 mph N10.8 kmh N 11.0 mph17.7 kmh 29.57 in1001.4 mb - 0.00 in0.0 mm 0.00 in0.0 mm
12:32 PM 66.9°F19.4°C 43.2°F6.2°C 42% 4.0 mph N6.4 kmh N 9.8 mph15.8 kmh 29.57 in1001.4 mb - 0.00 in0.0 mm 0.00 in0.0 mm
12:27 PM 66.9°F19.4°C 43.7°F6.5°C 43% 6.9 mph NE11.1 kmh NE 16.3 mph26.2 kmh 29.60 in1002.4 mb - 0.00 in0.0 mm 0.00 in0.0 mm
12:22 PM 66.6°F19.2°C 43.3°F6.3°C 43% 1.1 mph N1.8 kmh N 7.8 mph12.6 kmh 29.60 in1002.4 mb - 0.00 in0.0 mm 0.00 in0.0 mm
12:17 PM 66.2°F19.0°C 43.7°F6.5°C 44% 2.0 mph ENE3.2 kmh ENE 7.4 mph11.9 kmh 29.60 in1002.4 mb - 0.00 in0.0 mm 0.00 in0.0 mm
12:12 PM 66.0°F18.9°C 44.6°F7.0°C 46% 1.1 mph NNW1.8 kmh NNW 5.1 mph8.2 kmh 29.60 in1002.4 mb - 0.00 in0.0 mm 0.00 in0.0 mm
12:07 PM 65.8°F18.8°C 43.3°F6.3°C 44% 0.2 mph NNE0.3 kmh NNE 3.6 mph5.8 kmh 29.60 in1002.4 mb - 0.00 in0.0 mm 0.00 in0.0 mm
12:02 PM 65.5°F18.6°C 44.2°F6.8°C 46% 0.9 mph NW1.4 kmh NW 4.3 mph6.9 kmh 29.60 in1002.4 mb - 0.00 in0.0 mm 0.00 in0.0 mm
11:57 AM 65.7°F18.7°C 44.4°F6.9°C 46% Calm Calm -- 29.60 in1002.4 mb - 0.00 in0.0 mm 0.00 in0.0 mm
11:52 AM 65.3°F18.5°C 45.1°F7.3°C 48% 0.7 mph ENE1.1 kmh ENE 5.1 mph8.2 kmh 29.60 in1002.4 mb - 0.00 in0.0 mm 0.00 in0.0 mm
11:47 AM 64.6°F18.1°C 43.9°F6.6°C 47% 4.9 mph NNE7.9 kmh NNE 9.6 mph15.4 kmh 29.60 in1002.4 mb - 0.00 in0.0 mm 0.00 in0.0 mm
11:42 AM 64.2°F17.9°C 43.0°F6.1°C 46% 1.3 mph N2.1 kmh N 6.3 mph10.1 kmh 29.60 in1002.4 mb - 0.00 in0.0 mm 0.00 in0.0 mm
11:37 AM 64.2°F17.9°C 43.5°F6.4°C 47% 2.9 mph E4.7 kmh E 8.5 mph13.7 kmh 29.60 in1002.4 mb - 0.00 in0.0 mm 0.00 in0.0 mm
11:32 AM 64.0°F17.8°C 42.8°F6.0°C 46% 2.7 mph N4.3 kmh N 8.9 mph14.3 kmh 29.60 in1002.4 mb - 0.00 in0.0 mm 0.00 in0.0 mm
11:27 AM 63.9°F17.7°C 44.4°F6.9°C 49% 2.9 mph WNW4.7 kmh WNW 2.9 mph4.7 kmh 29.60 in1002.4 mb - 0.00 in0.0 mm 0.00 in0.0 mm
11:22 AM 63.5°F17.5°C 43.0°F6.1°C 47% 1.3 mph NNW2.1 kmh NNW 5.8 mph9.3 kmh 29.60 in1002.4 mb - 0.00 in0.0 mm 0.00 in0.0 mm
11:17 AM 63.9°F17.7°C 43.9°F6.6°C 48% 2.7 mph WNW4.3 kmh WNW 8.3 mph13.4 kmh 29.60 in1002.4 mb - 0.00 in0.0 mm 0.00 in0.0 mm
11:12 AM 63.5°F17.5°C 44.1°F6.7°C 49% 3.8 mph NW6.1 kmh NW 9.4 mph15.1 kmh 29.63 in1003.4 mb - 0.00 in0.0 mm 0.00 in0.0 mm
11:07 AM 63.3°F17.4°C 43.9°F6.6°C 49% 2.5 mph N4.0 kmh N 7.6 mph12.2 kmh 29.63 in1003.4 mb - 0.00 in0.0 mm 0.00 in0.0 mm
11:02 AM 63.7°F17.6°C 44.2°F6.8°C 49% 2.0 mph SW3.2 kmh SW 6.7 mph10.8 kmh 29.63 in1003.4 mb - 0.00 in0.0 mm 0.00 in0.0 mm
10:57 AM 63.5°F17.5°C 46.0°F7.8°C 53% 1.6 mph N2.6 kmh N 6.3 mph10.1 kmh 29.60 in1002.4 mb - 0.00 in0.0 mm 0.00 in0.0 mm
10:52 AM 62.6°F17.0°C 44.8°F7.1°C 52% 3.6 mph N5.8 kmh N 8.5 mph13.7 kmh 29.60 in1002.4 mb - 0.00 in0.0 mm 0.00 in0.0 mm
10:47 AM 62.2°F16.8°C 45.0°F7.2°C 53% 2.5 mph NW4.0 kmh NW 8.1 mph13.0 kmh 29.60 in1002.4 mb - 0.00 in0.0 mm 0.00 in0.0 mm
10:42 AM 61.7°F16.5°C 44.4°F6.9°C 53% 3.1 mph NW5.0 kmh NW 8.9 mph14.3 kmh 29.60 in1002.4 mb - 0.00 in0.0 mm 0.00 in0.0 mm
10:37 AM 61.2°F16.2°C 44.4°F6.9°C 54% 4.7 mph NW7.6 kmh NW 8.1 mph13.0 kmh 29.60 in1002.4 mb - 0.00 in0.0 mm 0.00 in0.0 mm
10:32 AM 60.6°F15.9°C 43.0°F6.1°C 52% 2.0 mph NW3.2 kmh NW 8.3 mph13.4 kmh 29.60 in1002.4 mb - 0.00 in0.0 mm 0.00 in0.0 mm
10:27 AM 60.6°F15.9°C 44.4°F6.9°C 55% 1.6 mph N2.6 kmh N 8.7 mph14.0 kmh 29.60 in1002.4 mb - 0.00 in0.0 mm 0.00 in0.0 mm
10:22 AM 60.6°F15.9°C 45.3°F7.4°C 57% 1.1 mph NNW1.8 kmh NNW 9.4 mph15.1 kmh 29.60 in1002.4 mb - 0.00 in0.0 mm 0.00 in0.0 mm
10:17 AM 60.3°F15.7°C 45.0°F7.2°C 57% 1.8 mph N2.9 kmh N 6.9 mph11.1 kmh 29.60 in1002.4 mb - 0.00 in0.0 mm 0.00 in0.0 mm
10:12 AM 59.9°F15.5°C 44.6°F7.0°C 57% 2.5 mph NNW4.0 kmh NNW 6.3 mph10.1 kmh 29.60 in1002.4 mb - 0.00 in0.0 mm 0.00 in0.0 mm
10:07 AM 59.2°F15.1°C 45.3°F7.4°C 60% 2.9 mph NNE4.7 kmh NNE 7.8 mph12.6 kmh 29.60 in1002.4 mb - 0.00 in0.0 mm 0.00 in0.0 mm
10:02 AM 58.8°F14.9°C 44.6°F7.0°C 59% 1.6 mph NE2.6 kmh NE 6.9 mph11.1 kmh 29.60 in1002.4 mb - 0.00 in0.0 mm 0.00 in0.0 mm
09:57 AM 58.8°F14.9°C 44.6°F7.0°C 59% 0.7 mph NNE1.1 kmh NNE 4.9 mph7.9 kmh 29.60 in1002.4 mb - 0.00 in0.0 mm 0.00 in0.0 mm
09:52 AM 58.6°F14.8°C 45.7°F7.6°C 62% 0.9 mph NE1.4 kmh NE 4.7 mph7.6 kmh 29.60 in1002.4 mb - 0.00 in0.0 mm 0.00 in0.0 mm
09:47 AM 58.6°F14.8°C 45.3°F7.4°C 61% 4.5 mph NE7.2 kmh NE 7.4 mph11.9 kmh 29.60 in1002.4 mb - 0.00 in0.0 mm 0.00 in0.0 mm
09:42 AM 58.8°F14.9°C 45.5°F7.5°C 61% Calm Calm -- 29.60 in1002.4 mb - 0.00 in0.0 mm 0.00 in0.0 mm
09:37 AM 58.8°F14.9°C 46.8°F8.2°C 64% 0.2 mph W0.3 kmh W 2.9 mph4.7 kmh 29.60 in1002.4 mb - 0.00 in0.0 mm 0.00 in0.0 mm
09:32 AM 58.5°F14.7°C 46.4°F8.0°C 64% Calm Calm -- 29.60 in1002.4 mb - 0.00 in0.0 mm 0.00 in0.0 mm
09:27 AM 58.3°F14.6°C 46.9°F8.3°C 66% 2.0 mph WSW3.2 kmh WSW 6.7 mph10.8 kmh 29.60 in1002.4 mb - 0.00 in0.0 mm 0.00 in0.0 mm
09:22 AM 57.7°F14.3°C 47.7°F8.7°C 69% 2.2 mph WSW3.5 kmh WSW 6.9 mph11.1 kmh 29.60 in1002.4 mb - 0.00 in0.0 mm 0.00 in0.0 mm
09:17 AM 56.8°F13.8°C 46.0°F7.8°C 67% 2.9 mph WNW4.7 kmh WNW 8.5 mph13.7 kmh 29.60 in1002.4 mb - 0.00 in0.0 mm 0.00 in0.0 mm
09:12 AM 56.7°F13.7°C 45.5°F7.5°C 66% 4.3 mph NW6.9 kmh NW 8.3 mph13.4 kmh 29.60 in1002.4 mb - 0.00 in0.0 mm 0.00 in0.0 mm
09:07 AM 56.5°F13.6°C 44.1°F6.7°C 63% 4.9 mph W7.9 kmh W 11.4 mph18.3 kmh 29.60 in1002.4 mb - 0.00 in0.0 mm 0.00 in0.0 mm
09:02 AM 56.1°F13.4°C 44.6°F7.0°C 65% 4.0 mph WSW6.4 kmh WSW 9.4 mph15.1 kmh 29.60 in1002.4 mb - 0.00 in0.0 mm 0.00 in0.0 mm
08:57 AM 55.8°F13.2°C 44.2°F6.8°C 65% 2.9 mph WNW4.7 kmh WNW 8.5 mph13.7 kmh 29.60 in1002.4 mb - 0.00 in0.0 mm 0.00 in0.0 mm
08:52 AM 55.8°F13.2°C 45.3°F7.4°C 68% 7.4 mph WSW11.9 kmh WSW 12.1 mph19.5 kmh 29.60 in1002.4 mb - 0.00 in0.0 mm 0.00 in0.0 mm
08:47 AM 55.9°F13.3°C 44.8°F7.1°C 66% 2.9 mph WSW4.7 kmh WSW 8.1 mph13.0 kmh 29.60 in1002.4 mb - 0.00 in0.0 mm 0.00 in0.0 mm
08:42 AM 55.9°F13.3°C 45.9°F7.7°C 69% 3.1 mph SW5.0 kmh SW 9.6 mph15.4 kmh 29.60 in1002.4 mb - 0.00 in0.0 mm 0.00 in0.0 mm
08:37 AM 55.8°F13.2°C 46.9°F8.3°C 72% 0.7 mph NW1.1 kmh NW 4.7 mph7.6 kmh 29.60 in1002.4 mb - 0.00 in0.0 mm 0.00 in0.0 mm
08:32 AM 55.2°F12.9°C 46.8°F8.2°C 73% 2.0 mph WNW3.2 kmh WNW 7.4 mph11.9 kmh 29.60 in1002.4 mb - 0.00 in0.0 mm 0.00 in0.0 mm
08:27 AM 55.0°F12.8°C 46.6°F8.1°C 73% 0.2 mph WSW0.3 kmh WSW 2.2 mph3.5 kmh 29.60 in1002.4 mb - 0.00 in0.0 mm 0.00 in0.0 mm
08:22 AM 54.9°F12.7°C 47.5°F8.6°C 76% Calm Calm 1.8 mph2.9 kmh 29.60 in1002.4 mb - 0.00 in0.0 mm 0.00 in0.0 mm
08:17 AM 54.3°F12.4°C 46.6°F8.1°C 75% 0.9 mph NW1.4 kmh NW 0.9 mph1.4 kmh 29.60 in1002.4 mb - 0.00 in0.0 mm 0.00 in0.0 mm
08:12 AM 54.0°F12.2°C 45.9°F7.7°C 74% 1.1 mph NW1.8 kmh NW 5.4 mph8.7 kmh 29.60 in1002.4 mb - 0.00 in0.0 mm 0.00 in0.0 mm
08:07 AM 53.6°F12.0°C 45.5°F7.5°C 74% Calm Calm 1.3 mph2.1 kmh 29.60 in1002.4 mb - 0.00 in0.0 mm 0.00 in0.0 mm
08:02 AM 53.4°F11.9°C 45.3°F7.4°C 74% 0.7 mph W1.1 kmh W 4.0 mph6.4 kmh 29.60 in1002.4 mb - 0.00 in0.0 mm 0.00 in0.0 mm
07:57 AM 53.2°F11.8°C 45.1°F7.3°C 74% 1.3 mph NNW2.1 kmh NNW 5.1 mph8.2 kmh 29.60 in1002.4 mb - 0.00 in0.0 mm 0.00 in0.0 mm
07:52 AM 53.1°F11.7°C 44.6°F7.0°C 73% Calm Calm -- 29.60 in1002.4 mb - 0.00 in0.0 mm 0.00 in0.0 mm
07:47 AM 53.4°F11.9°C 45.3°F7.4°C 74% 0.2 mph WNW0.3 kmh WNW 3.1 mph5.0 kmh 29.60 in1002.4 mb - 0.00 in0.0 mm 0.00 in0.0 mm
07:42 AM 53.1°F11.7°C 45.0°F7.2°C 74% 0.4 mph WNW0.6 kmh WNW 3.8 mph6.1 kmh 29.60 in1002.4 mb - 0.00 in0.0 mm 0.00 in0.0 mm
07:37 AM 52.5°F11.4°C 44.8°F7.1°C 75% 0.9 mph NW1.4 kmh NW 4.7 mph7.6 kmh 29.60 in1002.4 mb - 0.00 in0.0 mm 0.00 in0.0 mm
07:32 AM 52.2°F11.2°C 44.1°F6.7°C 74% 0.4 mph NW0.6 kmh NW 3.4 mph5.5 kmh 29.60 in1002.4 mb - 0.00 in0.0 mm 0.00 in0.0 mm
07:27 AM 52.3°F11.3°C 44.6°F7.0°C 75% Calm Calm -- 29.57 in1001.4 mb - 0.00 in0.0 mm 0.00 in0.0 mm
07:22 AM 52.0°F11.1°C 44.6°F7.0°C 76% 0.2 mph W0.3 kmh W 3.4 mph5.5 kmh 29.57 in1001.4 mb - 0.00 in0.0 mm 0.00 in0.0 mm
07:17 AM 51.6°F10.9°C 44.6°F7.0°C 77% Calm Calm -- 29.57 in1001.4 mb - 0.00 in0.0 mm 0.00 in0.0 mm
07:12 AM 51.6°F10.9°C 45.0°F7.2°C 78% 0.4 mph W0.6 kmh W 4.5 mph7.2 kmh 29.57 in1001.4 mb - 0.00 in0.0 mm 0.00 in0.0 mm
07:07 AM 51.6°F10.9°C 45.3°F7.4°C 79% 2.7 mph W4.3 kmh W 6.7 mph10.8 kmh 29.57 in1001.4 mb - 0.00 in0.0 mm 0.00 in0.0 mm
07:02 AM 51.6°F10.9°C 45.0°F7.2°C 78% 5.8 mph NW9.3 kmh NW 10.5 mph16.9 kmh 29.57 in1001.4 mb - 0.00 in0.0 mm 0.00 in0.0 mm
06:57 AM 51.6°F10.9°C 44.2°F6.8°C 76% 6.0 mph WNW9.7 kmh WNW 10.1 mph16.3 kmh 29.54 in1000.3 mb - 0.00 in0.0 mm 0.00 in0.0 mm
06:52 AM 51.6°F10.9°C 45.0°F7.2°C 78% 6.9 mph NW11.1 kmh NW 11.9 mph19.2 kmh 29.54 in1000.3 mb - 0.00 in0.0 mm 0.00 in0.0 mm
06:47 AM 51.4°F10.8°C 45.1°F7.3°C 79% 6.5 mph WNW10.5 kmh WNW 13.0 mph20.9 kmh 29.54 in1000.3 mb - 0.00 in0.0 mm 0.00 in0.0 mm
06:42 AM 51.3°F10.7°C 45.3°F7.4°C 80% 1.6 mph NW2.6 kmh NW 7.2 mph11.6 kmh 29.57 in1001.4 mb - 0.00 in0.0 mm 0.00 in0.0 mm
06:37 AM 51.3°F10.7°C 46.2°F7.9°C 83% 3.8 mph WSW6.1 kmh WSW 8.5 mph13.7 kmh 29.57 in1001.4 mb - 0.00 in0.0 mm 0.00 in0.0 mm
06:32 AM 51.3°F10.7°C 46.9°F8.3°C 85% 2.2 mph WSW3.5 kmh WSW 6.3 mph10.1 kmh 29.57 in1001.4 mb - 0.00 in0.0 mm 0.00 in0.0 mm
06:27 AM 51.3°F10.7°C 46.9°F8.3°C 85% 1.1 mph NW1.8 kmh NW 5.1 mph8.2 kmh 29.57 in1001.4 mb - 0.00 in0.0 mm 0.00 in0.0 mm
06:22 AM 51.3°F10.7°C 46.9°F8.3°C 85% 1.1 mph NW1.8 kmh NW 5.6 mph9.0 kmh 29.57 in1001.4 mb - 0.00 in0.0 mm 0.00 in0.0 mm
06:17 AM 51.3°F10.7°C 46.9°F8.3°C 85% Calm Calm 2.5 mph4.0 kmh 29.57 in1001.4 mb - 0.00 in0.0 mm 0.00 in0.0 mm
06:12 AM 51.3°F10.7°C 46.9°F8.3°C 85% Calm Calm -- 29.57 in1001.4 mb - 0.00 in0.0 mm 0.00 in0.0 mm
06:07 AM 51.4°F10.8°C 47.1°F8.4°C 85% Calm Calm -- 29.57 in1001.4 mb - 0.00 in0.0 mm 0.00 in0.0 mm
06:02 AM 51.4°F10.8°C 46.8°F8.2°C 84% 0.2 mph WNW0.3 kmh WNW 1.8 mph2.9 kmh 29.57 in1001.4 mb - 0.00 in0.0 mm 0.00 in0.0 mm
05:57 AM 51.6°F10.9°C 46.9°F8.3°C 84% Calm Calm -- 29.54 in1000.3 mb - 0.00 in0.0 mm 0.00 in0.0 mm
05:52 AM 51.8°F11.0°C 46.8°F8.2°C 83% 1.1 mph W1.8 kmh W 4.7 mph7.6 kmh 29.54 in1000.3 mb - 0.00 in0.0 mm 0.00 in0.0 mm
05:47 AM 52.0°F11.1°C 46.6°F8.1°C 82% Calm Calm -- 29.54 in1000.3 mb - 0.00 in0.0 mm 0.00 in0.0 mm
05:42 AM 52.2°F11.2°C 46.8°F8.2°C 82% Calm Calm -- 29.51 in999.3 mb - 0.00 in0.0 mm 0.00 in0.0 mm
05:37 AM 52.3°F11.3°C 46.8°F8.2°C 81% Calm Calm 1.6 mph2.6 kmh 29.51 in999.3 mb - 0.00 in0.0 mm 0.00 in0.0 mm
05:32 AM 52.5°F11.4°C 46.9°F8.3°C 81% 0.2 mph E0.3 kmh E 1.8 mph2.9 kmh 29.51 in999.3 mb - 0.00 in0.0 mm 0.00 in0.0 mm
05:27 AM 52.7°F11.5°C 46.8°F8.2°C 80% 1.1 mph NW1.8 kmh NW 8.1 mph13.0 kmh 29.51 in999.3 mb - 0.00 in0.0 mm 0.00 in0.0 mm
05:22 AM 52.9°F11.6°C 46.9°F8.3°C 80% 6.5 mph WNW10.5 kmh WNW 13.4 mph21.6 kmh 29.51 in999.3 mb - 0.00 in0.0 mm 0.00 in0.0 mm
05:17 AM 52.9°F11.6°C 46.6°F8.1°C 79% 6.9 mph WNW11.1 kmh WNW 12.1 mph19.5 kmh 29.51 in999.3 mb - 0.00 in0.0 mm 0.00 in0.0 mm
05:12 AM 53.2°F11.8°C 47.8°F8.8°C 82% 4.9 mph NW7.9 kmh NW 9.6 mph15.4 kmh 29.48 in998.3 mb - 0.00 in0.0 mm 0.00 in0.0 mm
05:07 AM 53.6°F12.0°C 47.8°F8.8°C 81% 8.1 mph N13.0 kmh N 15.7 mph25.3 kmh 29.48 in998.3 mb - 0.00 in0.0 mm 0.00 in0.0 mm
05:02 AM 53.8°F12.1°C 48.0°F8.9°C 81% 6.5 mph N10.5 kmh N 15.0 mph24.1 kmh 29.48 in998.3 mb - 0.00 in0.0 mm 0.00 in0.0 mm
04:57 AM 54.1°F12.3°C 48.7°F9.3°C 82% 6.7 mph WSW10.8 kmh WSW 15.4 mph24.8 kmh 29.51 in999.3 mb - 0.00 in0.0 mm 0.00 in0.0 mm
04:52 AM 54.5°F12.5°C 49.1°F9.5°C 82% 6.3 mph W10.1 kmh W 13.2 mph21.2 kmh 29.51 in999.3 mb - 0.00 in0.0 mm 0.00 in0.0 mm
04:47 AM 54.7°F12.6°C 49.6°F9.8°C 83% 5.8 mph WSW9.3 kmh WSW 12.5 mph20.1 kmh 29.51 in999.3 mb - 0.00 in0.0 mm 0.00 in0.0 mm
04:42 AM 54.7°F12.6°C 49.6°F9.8°C 83% 6.7 mph WSW10.8 kmh WSW 12.3 mph19.8 kmh 29.48 in998.3 mb - 0.00 in0.0 mm 0.00 in0.0 mm
04:37 AM 54.7°F12.6°C 49.6°F9.8°C 83% 7.4 mph WSW11.9 kmh WSW 13.0 mph20.9 kmh 29.48 in998.3 mb - 0.00 in0.0 mm 0.00 in0.0 mm
04:32 AM 54.7°F12.6°C 49.6°F9.8°C 83% 6.0 mph WSW9.7 kmh WSW 9.4 mph15.1 kmh 29.48 in998.3 mb - 0.00 in0.0 mm 0.00 in0.0 mm
04:27 AM 54.7°F12.6°C 50.0°F10.0°C 84% 4.0 mph WSW6.4 kmh WSW 7.2 mph11.6 kmh 29.51 in999.3 mb - 0.00 in0.0 mm 0.00 in0.0 mm
04:22 AM 54.9°F12.7°C 50.2°F10.1°C 84% 4.5 mph W7.2 kmh W 9.2 mph14.8 kmh 29.51 in999.3 mb - 0.00 in0.0 mm 0.00 in0.0 mm
04:17 AM 54.9°F12.7°C 49.8°F9.9°C 83% 2.2 mph WSW3.5 kmh WSW 6.0 mph9.7 kmh 29.51 in999.3 mb - 0.00 in0.0 mm 0.00 in0.0 mm
04:12 AM 54.9°F12.7°C 49.8°F9.9°C 83% 3.6 mph SW5.8 kmh SW 7.4 mph11.9 kmh 29.51 in999.3 mb - 0.00 in0.0 mm 0.00 in0.0 mm
04:07 AM 54.9°F12.7°C 49.8°F9.9°C 83% 4.0 mph SSW6.4 kmh SSW 6.5 mph10.5 kmh 29.51 in999.3 mb - 0.00 in0.0 mm 0.00 in0.0 mm
04:02 AM 55.0°F12.8°C 49.6°F9.8°C 82% 3.4 mph WSW5.5 kmh WSW 6.9 mph11.1 kmh 29.51 in999.3 mb - 0.00 in0.0 mm 0.00 in0.0 mm
03:57 AM 55.0°F12.8°C 49.3°F9.6°C 81% 0.9 mph WNW1.4 kmh WNW 4.7 mph7.6 kmh 29.51 in999.3 mb - 0.00 in0.0 mm 0.00 in0.0 mm
03:52 AM 55.0°F12.8°C 49.3°F9.6°C 81% 5.4 mph SW8.7 kmh SW 8.5 mph13.7 kmh 29.51 in999.3 mb - 0.00 in0.0 mm 0.00 in0.0 mm
03:47 AM 55.2°F12.9°C 49.5°F9.7°C 81% 4.9 mph WNW7.9 kmh WNW 10.5 mph16.9 kmh 29.51 in999.3 mb - 0.00 in0.0 mm 0.00 in0.0 mm
03:42 AM 55.2°F12.9°C 49.1°F9.5°C 80% 4.0 mph SW6.4 kmh SW 9.6 mph15.4 kmh 29.51 in999.3 mb - 0.00 in0.0 mm 0.00 in0.0 mm
03:37 AM 55.4°F13.0°C 48.9°F9.4°C 79% 4.9 mph WNW7.9 kmh WNW 8.9 mph14.3 kmh 29.51 in999.3 mb - 0.00 in0.0 mm 0.00 in0.0 mm
03:32 AM 55.4°F13.0°C 48.9°F9.4°C 79% 3.1 mph WNW5.0 kmh WNW 9.4 mph15.1 kmh 29.51 in999.3 mb - 0.00 in0.0 mm 0.00 in0.0 mm
03:27 AM 55.6°F13.1°C 49.1°F9.5°C 79% 2.0 mph WSW3.2 kmh WSW 6.9 mph11.1 kmh 29.51 in999.3 mb - 0.00 in0.0 mm 0.00 in0.0 mm
03:22 AM 55.8°F13.2°C 49.3°F9.6°C 79% 4.9 mph WSW7.9 kmh WSW 9.8 mph15.8 kmh 29.51 in999.3 mb - 0.00 in0.0 mm 0.00 in0.0 mm
03:17 AM 55.8°F13.2°C 49.1°F9.5°C 78% 3.6 mph WSW5.8 kmh WSW 7.6 mph12.2 kmh 29.51 in999.3 mb - 0.00 in0.0 mm 0.00 in0.0 mm
03:12 AM 55.8°F13.2°C 49.6°F9.8°C 80% 3.6 mph SW5.8 kmh SW 8.3 mph13.4 kmh 29.51 in999.3 mb - 0.00 in0.0 mm 0.00 in0.0 mm
03:07 AM 55.9°F13.3°C 49.8°F9.9°C 80% 2.9 mph WSW4.7 kmh WSW 8.1 mph13.0 kmh 29.51 in999.3 mb - 0.00 in0.0 mm 0.00 in0.0 mm
03:02 AM 55.9°F13.3°C 50.2°F10.1°C 81% 2.7 mph W4.3 kmh W 6.9 mph11.1 kmh 29.51 in999.3 mb - 0.00 in0.0 mm 0.00 in0.0 mm
02:57 AM 55.9°F13.3°C 50.9°F10.5°C 83% 2.7 mph WSW4.3 kmh WSW 9.2 mph14.8 kmh 29.48 in998.3 mb - 0.00 in0.0 mm 0.00 in0.0 mm
02:52 AM 55.9°F13.3°C 50.9°F10.5°C 83% 4.5 mph SE7.2 kmh SE 7.8 mph12.6 kmh 29.48 in998.3 mb - 0.00 in0.0 mm 0.00 in0.0 mm
02:47 AM 55.9°F13.3°C 51.3°F10.7°C 84% 4.9 mph SW7.9 kmh SW 9.4 mph15.1 kmh 29.48 in998.3 mb - 0.00 in0.0 mm 0.00 in0.0 mm
02:42 AM 55.9°F13.3°C 51.3°F10.7°C 84% 1.6 mph SW2.6 kmh SW 5.4 mph8.7 kmh 29.48 in998.3 mb - 0.00 in0.0 mm 0.00 in0.0 mm
02:37 AM 55.9°F13.3°C 51.3°F10.7°C 84% 6.0 mph WSW9.7 kmh WSW 10.7 mph17.2 kmh 29.48 in998.3 mb - 0.00 in0.0 mm 0.00 in0.0 mm
02:32 AM 55.9°F13.3°C 51.3°F10.7°C 84% 4.0 mph W6.4 kmh W 9.2 mph14.8 kmh 29.48 in998.3 mb - 0.00 in0.0 mm 0.00 in0.0 mm
02:27 AM 55.8°F13.2°C 51.6°F10.9°C 86% 3.1 mph SW5.0 kmh SW 6.5 mph10.5 kmh 29.51 in999.3 mb - 0.00 in0.0 mm 0.00 in0.0 mm
02:22 AM 55.4°F13.0°C 52.2°F11.2°C 89% 0.4 mph NNW0.6 kmh NNW 4.5 mph7.2 kmh 29.51 in999.3 mb - 0.00 in0.0 mm 0.00 in0.0 mm
02:17 AM 55.2°F12.9°C 52.7°F11.5°C 91% 0.7 mph NNW1.1 kmh NNW 4.9 mph7.9 kmh 29.51 in999.3 mb - 0.00 in0.0 mm 0.00 in0.0 mm
02:12 AM 55.0°F12.8°C 52.7°F11.5°C 92% Calm Calm -- 29.48 in998.3 mb - 0.00 in0.0 mm 0.00 in0.0 mm
02:07 AM 54.9°F12.7°C 52.3°F11.3°C 91% Calm Calm -- 29.48 in998.3 mb - 0.00 in0.0 mm 0.00 in0.0 mm
02:02 AM 54.9°F12.7°C 52.3°F11.3°C 91% 0.2 mph WNW0.3 kmh WNW 3.8 mph6.1 kmh 29.48 in998.3 mb - 0.00 in0.0 mm 0.00 in0.0 mm
01:57 AM 54.9°F12.7°C 52.3°F11.3°C 91% 0.9 mph NW1.4 kmh NW 4.3 mph6.9 kmh 29.48 in998.3 mb - 0.00 in0.0 mm 0.00 in0.0 mm
01:52 AM 54.9°F12.7°C 52.5°F11.4°C 92% 1.8 mph N2.9 kmh N 6.3 mph10.1 kmh 29.48 in998.3 mb - 0.00 in0.0 mm 0.00 in0.0 mm
01:47 AM 54.9°F12.7°C 52.5°F11.4°C 92% 0.7 mph NNW1.1 kmh NNW 4.3 mph6.9 kmh 29.48 in998.3 mb - 0.00 in0.0 mm 0.00 in0.0 mm
01:42 AM 54.9°F12.7°C 52.9°F11.6°C 93% 0.9 mph NNW1.4 kmh NNW 0.9 mph1.4 kmh 29.48 in998.3 mb - 0.00 in0.0 mm 0.00 in0.0 mm
01:37 AM 54.9°F12.7°C 53.2°F11.8°C 94% 2.2 mph NW3.5 kmh NW 6.0 mph9.7 kmh 29.48 in998.3 mb - 0.00 in0.0 mm 0.00 in0.0 mm
01:32 AM 54.7°F12.6°C 53.1°F11.7°C 94% 2.2 mph WNW3.5 kmh WNW 7.2 mph11.6 kmh 29.48 in998.3 mb - 0.00 in0.0 mm 0.00 in0.0 mm
01:27 AM 54.5°F12.5°C 52.5°F11.4°C 93% 2.0 mph WNW3.2 kmh WNW 2.0 mph3.2 kmh 29.48 in998.3 mb - 0.00 in0.0 mm 0.00 in0.0 mm
01:22 AM 54.7°F12.6°C 52.7°F11.5°C 93% 1.1 mph W1.8 kmh W 6.3 mph10.1 kmh 29.48 in998.3 mb - 0.00 in0.0 mm 0.00 in0.0 mm
01:17 AM 54.5°F12.5°C 52.0°F11.1°C 91% 4.7 mph W7.6 kmh W 6.9 mph11.1 kmh 29.48 in998.3 mb - 0.00 in0.0 mm 0.00 in0.0 mm
01:12 AM 54.7°F12.6°C 52.2°F11.2°C 91% 4.0 mph WSW6.4 kmh WSW 7.6 mph12.2 kmh 29.48 in998.3 mb - 0.00 in0.0 mm 0.00 in0.0 mm
01:07 AM 54.7°F12.6°C 51.8°F11.0°C 90% 1.8 mph WNW2.9 kmh WNW 7.8 mph12.6 kmh 29.48 in998.3 mb - 0.00 in0.0 mm 0.00 in0.0 mm
01:02 AM 54.9°F12.7°C 52.3°F11.3°C 91% 1.8 mph WNW2.9 kmh WNW 6.0 mph9.7 kmh 29.48 in998.3 mb - 0.00 in0.0 mm 0.00 in0.0 mm
12:57 AM 54.9°F12.7°C 51.6°F10.9°C 89% 0.2 mph NW0.3 kmh NW 1.8 mph2.9 kmh 29.45 in997.3 mb - 0.00 in0.0 mm 0.00 in0.0 mm
12:52 AM 55.2°F12.9°C 51.8°F11.0°C 88% 0.7 mph NW1.1 kmh NW 0.7 mph1.1 kmh 29.45 in997.3 mb - 0.00 in0.0 mm 0.00 in0.0 mm
12:47 AM 55.4°F13.0°C 51.6°F10.9°C 87% 4.3 mph WNW6.9 kmh WNW 6.9 mph11.1 kmh 29.45 in997.3 mb - 0.00 in0.0 mm 0.00 in0.0 mm
12:42 AM 55.4°F13.0°C 52.0°F11.1°C 88% 4.3 mph WNW6.9 kmh WNW 7.4 mph11.9 kmh 29.45 in997.3 mb - 0.00 in0.0 mm 0.00 in0.0 mm
12:37 AM 55.4°F13.0°C 52.0°F11.1°C 88% 0.7 mph W1.1 kmh W 6.3 mph10.1 kmh 29.45 in997.3 mb - 0.00 in0.0 mm 0.00 in0.0 mm
12:32 AM 55.4°F13.0°C 52.2°F11.2°C 89% Calm Calm -- 29.45 in997.3 mb - 0.00 in0.0 mm 0.00 in0.0 mm
12:27 AM 55.4°F13.0°C 51.6°F10.9°C 87% Calm Calm -- 29.45 in997.3 mb - 0.00 in0.0 mm 0.00 in0.0 mm
12:22 AM 55.4°F13.0°C 51.6°F10.9°C 87% 2.0 mph NE3.2 kmh NE 5.4 mph8.7 kmh 29.45 in997.3 mb - 0.00 in0.0 mm 0.00 in0.0 mm
12:17 AM 55.8°F13.2°C 52.3°F11.3°C 88% 6.9 mph NE11.1 kmh NE 11.0 mph17.7 kmh 29.45 in997.3 mb - 0.00 in0.0 mm 0.00 in0.0 mm
12:12 AM 55.8°F13.2°C 52.0°F11.1°C 87% 5.4 mph NW8.7 kmh NW 9.2 mph14.8 kmh 29.42 in996.3 mb - 0.00 in0.0 mm 0.00 in0.0 mm
12:07 AM 55.8°F13.2°C 52.0°F11.1°C 87% 6.5 mph NNW10.5 kmh NNW 9.4 mph15.1 kmh 29.42 in996.3 mb - 0.00 in0.0 mm 0.00 in0.0 mm
12:02 AM 55.9°F13.3°C 52.2°F11.2°C 87% 6.5 mph NE10.5 kmh NE 12.5 mph20.1 kmh 29.42 in996.3 mb - 0.00 in0.0 mm 0.00 in0.0 mm